sensor_id;sensor_type;location;lat;lon;timestamp;pressure;altitude;pressure_sealevel;temperature;humidity
12913;BME280;6524;51.368;11.984;2023-12-28T00:02:40;153005.44;;;5.39;57.20
12913;BME280;6524;51.368;11.984;2023-12-28T00:07:41;153034.00;;;5.50;56.90
12913;BME280;6524;51.368;11.984;2023-12-28T00:12:41;153037.91;;;5.51;56.09
12913;BME280;6524;51.368;11.984;2023-12-28T00:17:41;153017.09;;;5.43;56.29
12913;BME280;6524;51.368;11.984;2023-12-28T00:22:42;153043.13;;;5.53;56.17
12913;BME280;6524;51.368;11.984;2023-12-28T00:27:44;153067.81;;;5.63;55.72
12913;BME280;6524;51.368;11.984;2023-12-28T00:32:45;153134.13;;;5.89;54.49
12913;BME280;6524;51.368;11.984;2023-12-28T00:37:46;153054.81;;;5.58;55.81
12913;BME280;6524;51.368;11.984;2023-12-28T00:42:46;153104.19;;;5.77;54.85
12913;BME280;6524;51.368;11.984;2023-12-28T00:47:46;153062.59;;;5.61;55.40
12913;BME280;6524;51.368;11.984;2023-12-28T00:52:47;153183.53;;;6.09;53.34
12913;BME280;6524;51.368;11.984;2023-12-28T00:57:48;153147.16;;;5.94;53.41
12913;BME280;6524;51.368;11.984;2023-12-28T01:02:49;153134.13;;;5.89;53.52
12913;BME280;6524;51.368;11.984;2023-12-28T01:07:49;153117.19;;;5.82;53.73
12913;BME280;6524;51.368;11.984;2023-12-28T01:12:50;153093.78;;;5.73;53.67
12913;BME280;6524;51.368;11.984;2023-12-28T01:23:01;153093.78;;;5.73;53.18
12913;BME280;6524;51.368;11.984;2023-12-28T01:28:01;153104.19;;;5.77;52.93
12913;BME280;6524;51.368;11.984;2023-12-28T01:33:01;153097.66;;;5.75;51.88
12913;BME280;6524;51.368;11.984;2023-12-28T01:38:02;153130.25;;;5.88;50.93
12913;BME280;6524;51.368;11.984;2023-12-28T01:43:03;153182.22;;;6.08;50.50
12913;BME280;6524;51.368;11.984;2023-12-28T01:48:04;153239.44;;;6.31;49.37
12913;BME280;6524;51.368;11.984;2023-12-28T01:53:04;153316.16;;;6.61;48.67
12913;BME280;6524;51.368;11.984;2023-12-28T01:58:06;153296.63;;;6.53;48.49
12913;BME280;6524;51.368;11.984;2023-12-28T05:03:24;153524.38;;;7.42;56.36
12913;BME280;6524;51.368;11.984;2023-12-28T05:08:25;153577.75;;;7.63;56.66
12913;BME280;6524;51.368;11.984;2023-12-28T05:13:25;153554.31;;;7.54;57.11
12913;BME280;6524;51.368;11.984;2023-12-28T05:18:25;153478.81;;;7.25;57.98
12913;BME280;6524;51.368;11.984;2023-12-28T05:23:26;153478.81;;;7.25;58.64
12913;BME280;6524;51.368;11.984;2023-12-28T05:28:26;153464.44;;;7.19;58.39
12913;BME280;6524;51.368;11.984;2023-12-28T05:33:27;153494.41;;;7.31;58.45
12913;BME280;6524;51.368;11.984;2023-12-28T05:38:27;153477.47;;;7.24;59.04
12913;BME280;6524;51.368;11.984;2023-12-28T05:43:28;153503.53;;;7.34;59.43
12913;BME280;6524;51.368;11.984;2023-12-28T05:48:29;153517.84;;;7.40;59.62
12913;BME280;6524;51.368;11.984;2023-12-28T05:53:29;153443.66;;;7.11;60.79
12913;BME280;6524;51.368;11.984;2023-12-28T05:58:29;153375.97;;;6.84;61.59
12913;BME280;6524;51.368;11.984;2023-12-28T06:03:30;153437.13;;;7.08;60.73
12913;BME280;6524;51.368;11.984;2023-12-28T06:08:31;153363.00;;;6.79;61.77
12913;BME280;6524;51.368;11.984;2023-12-28T06:13:31;153382.50;;;6.87;61.66
12913;BME280;6524;51.368;11.984;2023-12-28T06:18:32;153372.09;;;6.83;61.92
12913;BME280;6524;51.368;11.984;2023-12-28T06:23:32;153322.69;;;6.63;63.46
12913;BME280;6524;51.368;11.984;2023-12-28T06:28:33;153295.34;;;6.53;63.97
12913;BME280;6524;51.368;11.984;2023-12-28T06:33:33;153274.56;;;6.44;64.47
12913;BME280;6524;51.368;11.984;2023-12-28T06:38:34;153273.22;;;6.44;64.58
12913;BME280;6524;51.368;11.984;2023-12-28T06:43:35;153257.63;;;6.38;64.86
12913;BME280;6524;51.368;11.984;2023-12-28T06:48:35;153239.44;;;6.31;66.17
12913;BME280;6524;51.368;11.984;2023-12-28T06:53:36;153217.31;;;6.22;66.75
12913;BME280;6524;51.368;11.984;2023-12-28T06:58:36;153223.81;;;6.24;66.78
12913;BME280;6524;51.368;11.984;2023-12-28T07:03:36;153208.22;;;6.18;67.38
12913;BME280;6524;51.368;11.984;2023-12-28T07:08:37;153180.94;;;6.08;68.26
12913;BME280;6524;51.368;11.984;2023-12-28T07:13:37;153144.53;;;5.93;69.47
12913;BME280;6524;51.368;11.984;2023-12-28T07:18:37;153177.00;;;6.06;69.50
12913;BME280;6524;51.368;11.984;2023-12-28T07:23:38;153122.47;;;5.85;70.70
12913;BME280;6524;51.368;11.984;2023-12-28T07:28:38;153091.22;;;5.72;71.70
12913;BME280;6524;51.368;11.984;2023-12-28T07:33:40;153113.28;;;5.81;71.26
12913;BME280;6524;51.368;11.984;2023-12-28T07:38:41;153117.19;;;5.82;71.32
12913;BME280;6524;51.368;11.984;2023-12-28T07:43:41;153130.25;;;5.88;71.67
12913;BME280;6524;51.368;11.984;2023-12-28T07:48:42;153162.75;;;6.00;71.69
12913;BME280;6524;51.368;11.984;2023-12-28T07:53:42;153193.97;;;6.13;70.93
12913;BME280;6524;51.368;11.984;2023-12-28T07:58:43;153114.63;;;5.81;72.67
12913;BME280;6524;51.368;11.984;2023-12-28T08:03:43;153232.91;;;6.28;71.03
12913;BME280;6524;51.368;11.984;2023-12-28T08:08:43;153151.03;;;5.96;72.37
12913;BME280;6524;51.368;11.984;2023-12-28T08:13:44;153197.84;;;6.14;71.32
12913;BME280;6524;51.368;11.984;2023-12-28T08:18:44;153658.44;;;7.95;70.80
12913;BME280;6524;51.368;11.984;2023-12-28T08:23:44;153918.91;;;8.97;72.85
12913;BME280;6524;51.368;11.984;2023-12-28T08:28:45;153916.34;;;8.96;64.34
12913;BME280;6524;51.368;11.984;2023-12-28T08:33:45;154265.72;;;10.33;63.66
12913;BME280;6524;51.368;11.984;2023-12-28T08:38:47;154317.88;;;10.54;62.27
12913;BME280;6524;51.368;11.984;2023-12-28T08:43:49;153955.44;;;9.12;61.29
12913;BME280;6524;51.368;11.984;2023-12-28T08:48:51;154028.38;;;9.40;63.81
12913;BME280;6524;51.368;11.984;2023-12-28T08:53:55;153903.28;;;8.91;61.96
12913;BME280;6524;51.368;11.984;2023-12-28T08:58:57;153773.00;;;8.40;63.47
12913;BME280;6524;51.368;11.984;2023-12-28T09:03:58;153675.34;;;8.02;63.52
12913;BME280;6524;51.368;11.984;2023-12-28T09:08:58;153554.31;;;7.54;65.33
12913;BME280;6524;51.368;11.984;2023-12-28T09:13:58;153521.78;;;7.41;66.01
12913;BME280;6524;51.368;11.984;2023-12-28T09:18:59;153470.94;;;7.22;66.16
12913;BME280;6524;51.368;11.984;2023-12-28T09:24:00;153517.84;;;7.40;64.63
12913;BME280;6524;51.368;11.984;2023-12-28T09:29:00;153536.06;;;7.47;64.96
12913;BME280;6524;51.368;11.984;2023-12-28T09:34:00;153482.72;;;7.26;65.35
12913;BME280;6524;51.368;11.984;2023-12-28T09:39:02;153455.34;;;7.15;65.68
12913;BME280;6524;51.368;11.984;2023-12-28T09:44:11;153447.53;;;7.12;65.47
12913;BME280;6524;51.368;11.984;2023-12-28T09:49:11;153455.34;;;7.15;65.44
12913;BME280;6524;51.368;11.984;2023-12-28T09:54:12;153541.28;;;7.49;64.42
12913;BME280;6524;51.368;11.984;2023-12-28T09:59:15;153605.06;;;7.74;64.03
12913;BME280;6524;51.368;11.984;2023-12-28T10:04:16;153619.38;;;7.80;65.48
12913;BME280;6524;51.368;11.984;2023-12-28T10:09:16;153707.91;;;8.15;63.09
12913;BME280;6524;51.368;11.984;2023-12-28T10:14:17;153495.72;;;7.31;64.48
12913;BME280;6524;51.368;11.984;2023-12-28T10:19:21;153525.66;;;7.43;64.37
12913;BME280;6524;51.368;11.984;2023-12-28T10:24:22;153603.75;;;7.74;63.40
12913;BME280;6524;51.368;11.984;2023-12-28T10:29:26;153724.81;;;8.21;61.72
12913;BME280;6524;51.368;11.984;2023-12-28T10:34:26;153697.50;;;8.10;62.08
12913;BME280;6524;51.368;11.984;2023-12-28T10:39:27;153737.88;;;8.26;61.49
12913;BME280;6524;51.368;11.984;2023-12-28T10:44:35;153681.88;;;8.04;62.21
12913;BME280;6524;51.368;11.984;2023-12-28T10:49:39;153740.44;;;8.27;61.35
12913;BME280;6524;51.368;11.984;2023-12-28T10:55:00;153840.81;;;8.67;60.66
12913;BME280;6524;51.368;11.984;2023-12-28T11:00:25;153934.56;;;9.03;59.18
12913;BME280;6524;51.368;11.984;2023-12-28T11:05:26;153900.69;;;8.90;59.26
12913;BME280;6524;51.368;11.984;2023-12-28T11:10:28;153929.38;;;9.01;59.30
12913;BME280;6524;51.368;11.984;2023-12-28T11:15:30;153937.19;;;9.04;58.64
12913;BME280;6524;51.368;11.984;2023-12-28T11:20:32;153911.09;;;8.94;58.92
12913;BME280;6524;51.368;11.984;2023-12-28T11:25:33;153941.09;;;9.06;59.14
12913;BME280;6524;51.368;11.984;2023-12-28T11:30:33;153861.59;;;8.75;59.50
12913;BME280;6524;51.368;11.984;2023-12-28T11:35:36;153978.88;;;9.21;58.32
12913;BME280;6524;51.368;11.984;2023-12-28T11:40:41;153967.13;;;9.16;58.87
12913;BME280;6524;51.368;11.984;2023-12-28T11:45:48;154109.25;;;9.72;57.79
12913;BME280;6524;51.368;11.984;2023-12-28T11:50:50;154315.28;;;10.53;54.46
12913;BME280;6524;51.368;11.984;2023-12-28T11:55:51;154479.69;;;11.17;52.97
12913;BME280;6524;51.368;11.984;2023-12-28T12:00:52;154375.31;;;10.76;53.65
12913;BME280;6524;51.368;11.984;2023-12-28T12:05:53;154179.66;;;10.00;55.88
12913;BME280;6524;51.368;11.984;2023-12-28T12:11:05;154002.34;;;9.30;57.31
12913;BME280;6524;51.368;11.984;2023-12-28T12:16:07;153873.38;;;8.79;59.53
12913;BME280;6524;51.368;11.984;2023-12-28T12:21:07;153661.03;;;7.96;61.92
12913;BME280;6524;51.368;11.984;2023-12-28T12:26:08;153631.06;;;7.84;62.85
12913;BME280;6524;51.368;11.984;2023-12-28T12:31:08;153536.06;;;7.47;63.77
12913;BME280;6524;51.368;11.984;2023-12-28T12:36:09;153717.00;;;8.18;62.48
12913;BME280;6524;51.368;11.984;2023-12-28T12:41:10;153762.59;;;8.36;61.69
12913;BME280;6524;51.368;11.984;2023-12-28T12:46:12;153674.06;;;8.01;61.74
12913;BME280;6524;51.368;11.984;2023-12-28T12:51:12;153705.31;;;8.14;61.47
12913;BME280;6524;51.368;11.984;2023-12-28T12:56:13;153767.78;;;8.38;61.53
12913;BME280;6524;51.368;11.984;2023-12-28T13:01:13;153865.53;;;8.76;60.03
12913;BME280;6524;51.368;11.984;2023-12-28T13:06:14;153856.44;;;8.73;60.08
12913;BME280;6524;51.368;11.984;2023-12-28T13:11:14;153881.19;;;8.83;60.15
12913;BME280;6524;51.368;11.984;2023-12-28T13:16:15;154017.97;;;9.36;58.76
12913;BME280;6524;51.368;11.984;2023-12-28T13:21:16;154044.03;;;9.46;57.69
12913;BME280;6524;51.368;11.984;2023-12-28T13:26:17;154115.78;;;9.75;57.09
12913;BME280;6524;51.368;11.984;2023-12-28T13:31:18;154068.78;;;9.56;56.86
12913;BME280;6524;51.368;11.984;2023-12-28T13:36:18;154012.75;;;9.34;57.31
12913;BME280;6524;51.368;11.984;2023-12-28T13:41:18;154067.50;;;9.56;56.92
12913;BME280;6524;51.368;11.984;2023-12-28T13:46:19;153998.41;;;9.28;57.39
12913;BME280;6524;51.368;11.984;2023-12-28T13:51:19;153913.75;;;8.95;57.78
12913;BME280;6524;51.368;11.984;2023-12-28T13:56:19;153938.50;;;9.05;57.03
12913;BME280;6524;51.368;11.984;2023-12-28T14:01:20;153991.88;;;9.26;56.82
12913;BME280;6524;51.368;11.984;2023-12-28T14:06:20;153946.31;;;9.08;57.62
12913;BME280;6524;51.368;11.984;2023-12-28T14:11:21;153926.75;;;9.00;57.85
12913;BME280;6524;51.368;11.984;2023-12-28T14:16:21;153974.94;;;9.19;57.32
12913;BME280;6524;51.368;11.984;2023-12-28T14:21:22;154085.72;;;9.63;56.14
12913;BME280;6524;51.368;11.984;2023-12-28T14:26:22;153974.94;;;9.19;56.49
12913;BME280;6524;51.368;11.984;2023-12-28T14:31:23;154002.34;;;9.30;56.29
12913;BME280;6524;51.368;11.984;2023-12-28T14:36:33;153848.63;;;8.70;58.08
12913;BME280;6524;51.368;11.984;2023-12-28T14:41:35;153816.00;;;8.57;58.48
12913;BME280;6524;51.368;11.984;2023-12-28T14:46:35;153788.63;;;8.46;58.99
12913;BME280;6524;51.368;11.984;2023-12-28T14:51:35;153676.66;;;8.02;60.11
12913;BME280;6524;51.368;11.984;2023-12-28T14:56:36;153687.06;;;8.06;59.81
12913;BME280;6524;51.368;11.984;2023-12-28T15:01:36;153666.25;;;7.98;59.82
12913;BME280;6524;51.368;11.984;2023-12-28T15:06:36;153571.22;;;7.61;60.29
12913;BME280;6524;51.368;11.984;2023-12-28T15:11:38;153606.34;;;7.75;60.34
12913;BME280;6524;51.368;11.984;2023-12-28T15:16:39;153567.28;;;7.59;60.77
12913;BME280;6524;51.368;11.984;2023-12-28T15:21:39;153502.22;;;7.34;61.52
12913;BME280;6524;51.368;11.984;2023-12-28T15:26:40;153551.66;;;7.53;61.24
12913;BME280;6524;51.368;11.984;2023-12-28T15:31:40;153520.44;;;7.41;61.33
12913;BME280;6524;51.368;11.984;2023-12-28T15:36:41;153426.75;;;7.04;62.25
12913;BME280;6524;51.368;11.984;2023-12-28T15:41:42;153433.25;;;7.07;62.09
12913;BME280;6524;51.368;11.984;2023-12-28T15:46:43;153421.50;;;7.02;61.99
12913;BME280;6524;51.368;11.984;2023-12-28T15:51:43;153457.97;;;7.16;62.06
12913;BME280;6524;51.368;11.984;2023-12-28T15:56:43;153473.59;;;7.23;61.85
12913;BME280;6524;51.368;11.984;2023-12-28T16:01:44;153457.97;;;7.16;61.68
12913;BME280;6524;51.368;11.984;2023-12-28T16:06:44;153398.09;;;6.93;62.25
12913;BME280;6524;51.368;11.984;2023-12-28T16:11:44;153434.53;;;7.07;62.15
12913;BME280;6524;51.368;11.984;2023-12-28T16:16:45;153390.28;;;6.90;62.02
12913;BME280;6524;51.368;11.984;2023-12-28T16:21:46;153390.28;;;6.90;62.14
12913;BME280;6524;51.368;11.984;2023-12-28T16:26:48;153373.38;;;6.83;62.68
12913;BME280;6524;51.368;11.984;2023-12-28T16:31:48;153435.84;;;7.08;62.08
12913;BME280;6524;51.368;11.984;2023-12-28T16:36:48;153455.34;;;7.15;61.22
12913;BME280;6524;51.368;11.984;2023-12-28T16:41:49;153426.75;;;7.04;61.73
12913;BME280;6524;51.368;11.984;2023-12-28T16:46:49;153398.09;;;6.93;62.21
12913;BME280;6524;51.368;11.984;2023-12-28T16:51:50;153335.66;;;6.68;62.91
12913;BME280;6524;51.368;11.984;2023-12-28T16:56:50;153310.94;;;6.59;63.39
12913;BME280;6524;51.368;11.984;2023-12-28T17:01:51;153356.47;;;6.77;62.31
12913;BME280;6524;51.368;11.984;2023-12-28T17:06:51;153301.84;;;6.55;62.78
12913;BME280;6524;51.368;11.984;2023-12-28T17:12:01;153305.78;;;6.57;62.86
12913;BME280;6524;51.368;11.984;2023-12-28T17:17:05;153257.63;;;6.38;63.16
12913;BME280;6524;51.368;11.984;2023-12-28T17:22:07;153229.03;;;6.26;63.44
12913;BME280;6524;51.368;11.984;2023-12-28T17:27:10;153248.53;;;6.34;63.51
12913;BME280;6524;51.368;11.984;2023-12-28T17:32:14;153252.44;;;6.36;63.86
12913;BME280;6524;51.368;11.984;2023-12-28T17:37:15;153249.88;;;6.35;63.56
12913;BME280;6524;51.368;11.984;2023-12-28T17:42:19;153167.91;;;6.02;64.52
12913;BME280;6524;51.368;11.984;2023-12-28T17:47:26;153160.13;;;5.99;64.53
12913;BME280;6524;51.368;11.984;2023-12-28T17:52:31;153177.00;;;6.06;64.96
12913;BME280;6524;51.368;11.984;2023-12-28T17:57:32;153244.66;;;6.33;63.79
12913;BME280;6524;51.368;11.984;2023-12-28T18:02:32;153187.44;;;6.10;65.14
12913;BME280;6524;51.368;11.984;2023-12-28T18:07:33;153239.44;;;6.31;64.15
12913;BME280;6524;51.368;11.984;2023-12-28T18:12:33;153242.06;;;6.32;63.81
12913;BME280;6524;51.368;11.984;2023-12-28T18:17:33;153184.81;;;6.09;64.62
12913;BME280;6524;51.368;11.984;2023-12-28T18:22:34;153213.44;;;6.20;64.45
12913;BME280;6524;51.368;11.984;2023-12-28T18:27:34;153229.03;;;6.26;64.33
12913;BME280;6524;51.368;11.984;2023-12-28T18:32:35;153236.84;;;6.30;64.04
12913;BME280;6524;51.368;11.984;2023-12-28T18:37:36;153218.66;;;6.22;64.29
12913;BME280;6524;51.368;11.984;2023-12-28T18:42:39;153182.22;;;6.08;65.01
12913;BME280;6524;51.368;11.984;2023-12-28T18:47:39;153232.91;;;6.28;64.43
12913;BME280;6524;51.368;11.984;2023-12-28T18:52:42;153188.75;;;6.11;64.92
12913;BME280;6524;51.368;11.984;2023-12-28T18:57:43;153175.72;;;6.06;65.46
12913;BME280;6524;51.368;11.984;2023-12-28T19:02:43;153140.66;;;5.92;65.32
12913;BME280;6524;51.368;11.984;2023-12-28T19:07:43;153166.63;;;6.02;65.12
12913;BME280;6524;51.368;11.984;2023-12-28T19:12:44;153247.22;;;6.34;64.36
12913;BME280;6524;51.368;11.984;2023-12-28T19:17:44;153171.84;;;6.04;65.07
12913;BME280;6524;51.368;11.984;2023-12-28T19:22:45;153252.44;;;6.36;64.37
12913;BME280;6524;51.368;11.984;2023-12-28T19:27:45;153304.44;;;6.56;63.86
12913;BME280;6524;51.368;11.984;2023-12-28T19:32:46;153296.63;;;6.53;64.02
12913;BME280;6524;51.368;11.984;2023-12-28T19:37:46;153299.28;;;6.54;63.82
12913;BME280;6524;51.368;11.984;2023-12-28T19:42:47;153268.06;;;6.42;64.61
12913;BME280;6524;51.368;11.984;2023-12-28T19:47:48;153203.06;;;6.16;65.66
12913;BME280;6524;51.368;11.984;2023-12-28T19:52:48;153232.91;;;6.28;65.28
12913;BME280;6524;51.368;11.984;2023-12-28T19:57:49;153244.66;;;6.33;65.21
12913;BME280;6524;51.368;11.984;2023-12-28T20:02:50;153204.34;;;6.17;65.53
12913;BME280;6524;51.368;11.984;2023-12-28T20:07:50;153273.22;;;6.44;64.77
12913;BME280;6524;51.368;11.984;2023-12-28T20:12:52;153242.06;;;6.32;65.06
12913;BME280;6524;51.368;11.984;2023-12-28T20:17:53;153244.66;;;6.33;65.42
12913;BME280;6524;51.368;11.984;2023-12-28T20:22:54;153240.72;;;6.31;65.44
12913;BME280;6524;51.368;11.984;2023-12-28T20:27:54;153216.03;;;6.21;65.75
12913;BME280;6524;51.368;11.984;2023-12-28T20:32:58;153248.53;;;6.34;65.47
12913;BME280;6524;51.368;11.984;2023-12-28T20:37:58;153278.44;;;6.46;64.84
12913;BME280;6524;51.368;11.984;2023-12-28T20:42:58;153268.06;;;6.42;65.32
12913;BME280;6524;51.368;11.984;2023-12-28T20:47:59;153291.47;;;6.51;64.81
12913;BME280;6524;51.368;11.984;2023-12-28T20:53:00;153242.06;;;6.32;65.46
12913;BME280;6524;51.368;11.984;2023-12-28T20:58:00;153309.66;;;6.58;64.22
12913;BME280;6524;51.368;11.984;2023-12-28T21:03:00;153231.63;;;6.27;64.59
12913;BME280;6524;51.368;11.984;2023-12-28T21:08:01;153265.41;;;6.41;64.80
12913;BME280;6524;51.368;11.984;2023-12-28T21:13:01;153188.75;;;6.11;65.72
12913;BME280;6524;51.368;11.984;2023-12-28T21:18:04;153166.63;;;6.02;66.04
12913;BME280;6524;51.368;11.984;2023-12-28T21:23:04;153200.41;;;6.15;65.72
12913;BME280;6524;51.368;11.984;2023-12-28T21:28:05;153199.13;;;6.15;65.28
12913;BME280;6524;51.368;11.984;2023-12-28T21:33:05;153144.53;;;5.93;65.97
12913;BME280;6524;51.368;11.984;2023-12-28T21:38:06;153244.66;;;6.33;65.05
12913;BME280;6524;51.368;11.984;2023-12-28T21:43:07;153162.75;;;6.00;65.90
12913;BME280;6524;51.368;11.984;2023-12-28T21:48:09;153262.84;;;6.40;64.83
12913;BME280;6524;51.368;11.984;2023-12-28T21:53:09;153234.25;;;6.29;65.01
12913;BME280;6524;51.368;11.984;2023-12-28T21:58:10;153197.84;;;6.14;65.30
12913;BME280;6524;51.368;11.984;2023-12-28T22:03:11;153200.41;;;6.15;65.45
12913;BME280;6524;51.368;11.984;2023-12-28T22:08:12;153265.41;;;6.41;64.51
12913;BME280;6524;51.368;11.984;2023-12-28T22:13:13;153205.63;;;6.17;64.88
12913;BME280;6524;51.368;11.984;2023-12-28T22:18:13;153214.72;;;6.21;64.40
12913;BME280;6524;51.368;11.984;2023-12-28T22:23:14;153201.72;;;6.16;64.69
12913;BME280;6524;51.368;11.984;2023-12-28T22:28:14;153216.03;;;6.21;64.16
12913;BME280;6524;51.368;11.984;2023-12-28T22:33:15;153154.97;;;5.97;64.77
12913;BME280;6524;51.368;11.984;2023-12-28T22:38:16;153106.81;;;5.78;65.50
12913;BME280;6524;51.368;11.984;2023-12-28T22:43:16;153131.56;;;5.88;65.59
12913;BME280;6524;51.368;11.984;2023-12-28T22:48:16;153135.44;;;5.90;65.34
12913;BME280;6524;51.368;11.984;2023-12-28T22:53:19;153134.13;;;5.89;65.20
12913;BME280;6524;51.368;11.984;2023-12-28T22:58:19;153122.47;;;5.85;65.72
12913;BME280;6524;51.368;11.984;2023-12-28T23:03:20;153119.78;;;5.84;65.43
12913;BME280;6524;51.368;11.984;2023-12-28T23:08:20;153143.22;;;5.93;65.63
12913;BME280;6524;51.368;11.984;2023-12-28T23:13:20;153071.69;;;5.65;66.11
12913;BME280;6524;51.368;11.984;2023-12-28T23:18:21;153132.84;;;5.89;65.65
12913;BME280;6524;51.368;11.984;2023-12-28T23:23:22;153121.06;;;5.84;65.43
12913;BME280;6524;51.368;11.984;2023-12-28T23:28:22;153078.19;;;5.67;65.72
12913;BME280;6524;51.368;11.984;2023-12-28T23:33:22;153104.19;;;5.77;65.62
12913;BME280;6524;51.368;11.984;2023-12-28T23:38:23;153178.34;;;6.07;65.00
12913;BME280;6524;51.368;11.984;2023-12-28T23:43:23;153109.41;;;5.79;65.47
12913;BME280;6524;51.368;11.984;2023-12-28T23:48:23;153106.81;;;5.78;65.17
12913;BME280;6524;51.368;11.984;2023-12-28T23:53:24;153114.63;;;5.81;65.25
12913;BME280;6524;51.368;11.984;2023-12-28T23:58:24;153138.00;;;5.91;65.06
